Skipwith, Virginia
Current Conditions -  °F | °C
As of 3:15 PM on Thursday 30 Oct 2014 (Local Time) from KCXE Reporting Station
Broken Clouds Broken Clouds  
Wind Chill: 66°   Ceiling: 5000
Heat Index: 66°   Visibility: 10mi
Dew Point: 42°   Wind: 3mph
Humidity: 42%   Direction: 10°N
Pressure: 29.99"   Gusts: NA
Location:  36.72°N, 78.52°W
Report Text: KCXE 301915Z AUTO 01003KT 10SM BKN050 19/06 A2999 RMK AO1 T01880057
Loading
Personal Weather Stations






























Interactive Weather Map
Tropical Storm Tracking
New forecast layout! Learn more

10-Day Weather Forecast

Advertisements
Track Severe Weather on mobile